createdAt,value
2018-05-26T00:00:25.648Z,79.30
2018-05-26T00:02:53.092Z,79.40
2018-05-26T00:05:20.532Z,79.30
2018-05-26T00:07:48.753Z,79.50
2018-05-26T00:10:16.195Z,79.50
2018-05-26T00:12:43.656Z,79.10
2018-05-26T00:15:11.095Z,79.40
2018-05-26T00:17:38.555Z,79.40
2018-05-26T00:20:06.000Z,79.10
2018-05-26T00:22:33.457Z,79.50
2018-05-26T00:25:00.940Z,79.80
2018-05-26T00:27:28.407Z,79.90
2018-05-26T00:29:55.849Z,80.00
2018-05-26T00:32:24.075Z,79.70
2018-05-26T00:34:51.520Z,79.70
2018-05-26T00:37:18.980Z,80.20
2018-05-26T00:39:46.424Z,79.50
2018-05-26T00:42:14.652Z,80.00
2018-05-26T00:44:42.095Z,79.90
2018-05-26T00:47:09.556Z,79.90
2018-05-26T00:49:37.772Z,80.00
2018-05-26T00:52:05.226Z,80.00
2018-05-26T00:54:33.436Z,80.40
2018-05-26T00:57:00.888Z,79.90
2018-05-26T00:59:28.343Z,79.50
2018-05-26T01:01:55.790Z,79.60
2018-05-26T01:04:24.019Z,79.50
2018-05-26T01:06:51.469Z,79.50
2018-05-26T01:09:19.003Z,79.30
2018-05-26T01:11:46.452Z,79.20
2018-05-26T01:14:13.940Z,79.20
2018-05-26T01:16:41.383Z,78.70
2018-05-26T01:19:08.844Z,78.10
2018-05-26T01:21:36.287Z,78.20
2018-05-26T01:24:03.751Z,78.70
2018-05-26T01:26:31.980Z,79.20
2018-05-26T01:28:59.444Z,79.20
2018-05-26T01:31:26.888Z,79.50
2018-05-26T01:33:54.343Z,80.00
2018-05-26T01:36:21.843Z,79.50
2018-05-26T01:38:50.025Z,79.20
2018-05-26T01:41:17.480Z,79.20
2018-05-26T01:43:44.948Z,79.10
2018-05-26T01:46:12.476Z,79.00
2018-05-26T01:48:40.090Z,79.20
2018-05-26T01:51:08.288Z,77.90
2018-05-26T01:53:35.813Z,77.80
2018-05-26T01:56:03.285Z,78.60
2018-05-26T01:58:30.732Z,78.30
2018-05-26T02:00:58.183Z,78.20
2018-05-26T02:03:25.643Z,78.30
2018-05-26T02:05:53.087Z,78.60
2018-05-26T02:08:20.599Z,78.70
2018-05-26T02:10:48.059Z,78.60
2018-05-26T02:13:15.515Z,79.20
2018-05-26T02:15:43.145Z,79.80
2018-05-26T02:18:10.598Z,80.20
2018-05-26T02:20:38.807Z,80.50
2018-05-26T02:23:07.036Z,80.70
2018-05-26T02:25:34.484Z,80.60
2018-05-26T02:28:01.940Z,80.90
2018-05-26T02:30:29.388Z,80.00
2018-05-26T02:32:57.615Z,81.50
2018-05-26T02:35:25.177Z,80.90
2018-05-26T02:37:52.635Z,81.00
2018-05-26T02:40:20.088Z,80.80
2018-05-26T02:42:48.303Z,81.20
2018-05-26T02:45:15.762Z,80.50
2018-05-26T02:47:44.106Z,80.30
2018-05-26T02:50:11.576Z,80.20
2018-05-26T02:52:39.019Z,80.30
2018-05-26T02:55:06.466Z,80.30
2018-05-26T02:57:33.951Z,80.30
2018-05-26T03:00:01.405Z,80.40
2018-05-26T03:02:28.856Z,80.60
2018-05-26T03:05:02.744Z,80.70
2018-05-26T03:07:35.853Z,80.60
2018-05-26T03:10:09.121Z,81.20
2018-05-26T03:12:42.505Z,82.00
2018-05-26T03:15:09.462Z,82.20
2018-05-26T03:20:38.709Z,82.60
2018-05-26T03:23:06.172Z,83.10
2018-05-26T03:25:34.389Z,82.80
2018-05-26T03:28:01.949Z,82.80
2018-05-26T03:30:29.344Z,82.70
2018-05-26T03:32:56.861Z,82.70
2018-05-26T03:35:25.098Z,83.30
2018-05-26T03:37:52.669Z,83.30
2018-05-26T03:40:20.134Z,83.70
2018-05-26T03:42:47.589Z,83.30
2018-05-26T03:45:15.061Z,82.40
2018-05-26T03:47:42.521Z,82.20
2018-05-26T03:50:09.980Z,81.90
2018-05-26T03:52:37.443Z,81.60
2018-05-26T03:55:35.384Z,81.50
2018-05-26T03:58:15.578Z,82.60
2018-05-26T04:00:43.792Z,82.00
2018-05-26T04:03:11.274Z,82.00
2018-05-26T04:05:38.728Z,82.60
2018-05-26T04:08:06.194Z,83.50
2018-05-26T04:10:33.668Z,83.70
2018-05-26T04:13:01.123Z,83.90
2018-05-26T04:15:29.356Z,84.10
2018-05-26T04:17:56.832Z,84.20
2018-05-26T04:20:24.314Z,83.90
2018-05-26T04:22:51.772Z,83.80
2018-05-26T04:25:19.245Z,83.70
2018-05-26T04:27:46.715Z,84.10
2018-05-26T04:30:14.190Z,83.90
2018-05-26T04:32:41.644Z,84.00
2018-05-26T04:35:09.229Z,83.90
2018-05-26T04:37:36.933Z,83.80
2018-05-26T04:40:05.467Z,83.60
2018-05-26T04:42:33.058Z,83.60
2018-05-26T04:45:00.521Z,83.60
2018-05-26T04:47:27.979Z,83.30
2018-05-26T04:49:55.437Z,83.50
2018-05-26T04:52:22.892Z,83.70
2018-05-26T04:54:50.371Z,83.20
2018-05-26T04:57:17.829Z,83.10
2018-05-26T04:59:45.296Z,83.50
2018-05-26T05:02:12.757Z,83.10
2018-05-26T05:04:40.998Z,82.60
2018-05-26T05:07:08.541Z,82.60
2018-05-26T05:09:36.009Z,82.80
2018-05-26T05:12:03.482Z,82.10
2018-05-26T05:14:30.936Z,81.50
2018-05-26T05:16:58.401Z,81.40
2018-05-26T05:19:25.873Z,81.80
2018-05-26T05:21:54.125Z,81.90
2018-05-26T05:24:21.605Z,81.30
2018-05-26T05:26:49.862Z,81.10
2018-05-26T05:29:18.157Z,81.10
2018-05-26T05:31:45.605Z,80.80
2018-05-26T05:34:13.083Z,80.30
2018-05-26T05:36:40.541Z,80.40
2018-05-26T05:39:08.014Z,80.60
2018-05-26T05:41:35.474Z,80.20
2018-05-26T05:44:02.961Z,80.00
2018-05-26T05:46:30.530Z,79.40
2018-05-26T05:48:58.050Z,79.80
2018-05-26T05:51:26.256Z,79.70
2018-05-26T05:53:54.489Z,79.60
2018-05-26T05:56:21.990Z,79.50
2018-05-26T05:58:49.434Z,79.30
2018-05-26T06:01:16.969Z,79.20
2018-05-26T06:03:44.416Z,78.80
2018-05-26T06:06:11.880Z,78.80
2018-05-26T06:08:39.332Z,78.10
2018-05-26T06:11:07.564Z,78.40
2018-05-26T06:13:35.027Z,78.40
2018-05-26T06:16:02.493Z,78.90
2018-05-26T06:18:29.948Z,79.10
2018-05-26T06:20:58.388Z,78.60
2018-05-26T06:23:25.848Z,78.90
2018-05-26T06:25:53.330Z,79.10
2018-05-26T06:28:20.785Z,78.50
2018-05-26T06:30:48.256Z,78.30
2018-05-26T06:33:15.709Z,77.50
2018-05-26T06:35:43.181Z,77.30
2018-05-26T06:38:10.640Z,77.40
2018-05-26T06:40:38.109Z,77.60
2018-05-26T06:43:05.556Z,77.50
2018-05-26T06:45:33.033Z,77.40
2018-05-26T06:48:00.492Z,78.10
2018-05-26T06:50:28.099Z,77.70
2018-05-26T06:52:55.553Z,77.70
2018-05-26T06:55:23.153Z,78.60
2018-05-26T06:57:50.609Z,78.90
2018-05-26T07:00:18.117Z,78.30
2018-05-26T07:02:45.560Z,78.60
2018-05-26T07:05:13.034Z,78.40
2018-05-26T07:07:40.501Z,78.60
2018-05-26T07:10:08.103Z,78.10
2018-05-26T07:12:36.331Z,78.80
2018-05-26T07:15:03.866Z,78.80
2018-05-26T07:17:32.095Z,78.10
2018-05-26T07:19:59.594Z,78.10
2018-05-26T07:22:27.056Z,77.80
2018-05-26T07:24:54.526Z,78.40
2018-05-26T07:27:21.975Z,77.10
2018-05-26T07:29:49.444Z,76.20
2018-05-26T07:32:16.899Z,75.70
2018-05-26T07:34:44.360Z,74.40
2018-05-26T07:37:11.808Z,73.70
2018-05-26T07:39:40.178Z,72.30
2018-05-26T07:42:07.624Z,72.20
2018-05-26T07:44:35.154Z,70.50
2018-05-26T07:47:02.719Z,69.10
2018-05-26T07:49:30.936Z,67.80
2018-05-26T07:51:58.399Z,67.80
2018-05-26T07:54:25.864Z,66.80
2018-05-26T07:56:54.983Z,67.20
2018-05-26T07:59:22.429Z,66.60
2018-05-26T08:01:49.884Z,66.50
2018-05-26T08:04:18.334Z,64.40
2018-05-26T08:06:45.781Z,63.90
2018-05-26T08:09:13.228Z,63.30
2018-05-26T08:11:40.703Z,63.10
2018-05-26T08:14:08.155Z,63.00
2018-05-26T08:16:35.625Z,63.30
2018-05-26T08:19:03.077Z,62.80
2018-05-26T08:21:31.324Z,60.20
2018-05-26T08:23:58.804Z,60.10
2018-05-26T08:26:26.461Z,60.70
2018-05-26T08:28:53.917Z,59.60
2018-05-26T08:31:21.417Z,60.10
2018-05-26T08:33:48.929Z,59.10
2018-05-26T08:36:16.336Z,58.70
2018-05-26T08:38:43.793Z,60.00
2018-05-26T08:41:11.282Z,59.50
2018-05-26T08:43:38.727Z,59.60
2018-05-26T08:46:06.228Z,57.00
2018-05-26T08:48:33.714Z,58.60
2018-05-26T08:51:01.176Z,60.10
2018-05-26T08:53:28.668Z,57.00
2018-05-26T08:55:56.293Z,58.50
2018-05-26T08:58:23.741Z,58.50
2018-05-26T09:00:51.296Z,57.80
2018-05-26T09:03:18.741Z,57.30
2018-05-26T09:05:47.092Z,57.10
2018-05-26T09:08:14.756Z,57.10
2018-05-26T09:10:43.043Z,56.50
2018-05-26T09:13:10.664Z,56.40
2018-05-26T09:15:38.896Z,53.70
2018-05-26T09:18:06.337Z,53.60
2018-05-26T09:20:33.813Z,53.00
2018-05-26T09:23:01.262Z,53.10
2018-05-26T09:25:29.554Z,50.40
2018-05-26T09:27:56.937Z,50.40
2018-05-26T09:30:24.549Z,50.50
2018-05-26T09:32:52.002Z,51.80
2018-05-26T09:35:19.464Z,52.90
2018-05-26T09:37:47.055Z,51.20
2018-05-26T09:40:14.546Z,52.50
2018-05-26T09:42:41.988Z,52.20
2018-05-26T09:45:09.457Z,50.50
2018-05-26T09:47:36.910Z,50.40
2018-05-26T09:50:04.378Z,50.90
2018-05-26T09:52:31.831Z,48.70
2018-05-26T09:54:59.317Z,47.60
2018-05-26T09:57:26.797Z,47.40
2018-05-26T09:59:54.258Z,45.10
2018-05-26T10:02:21.818Z,45.80
2018-05-26T10:04:50.154Z,44.50
2018-05-26T10:07:17.605Z,44.50
2018-05-26T10:09:45.093Z,42.50
2018-05-26T10:12:12.541Z,42.00
2018-05-26T10:14:39.999Z,41.50
2018-05-26T10:17:07.459Z,41.80
2018-05-26T10:19:34.923Z,41.70
2018-05-26T10:22:02.390Z,43.20
2018-05-26T10:24:29.836Z,44.10
2018-05-26T10:26:58.065Z,43.20
2018-05-26T10:29:25.649Z,43.20
2018-05-26T10:31:53.109Z,43.80
2018-05-26T10:34:20.588Z,42.10
2018-05-26T10:36:48.148Z,43.20
2018-05-26T10:39:15.600Z,43.80
2018-05-26T10:41:43.070Z,43.90
2018-05-26T10:44:10.532Z,43.00
2018-05-26T10:46:38.008Z,42.70
2018-05-26T10:49:05.466Z,45.00
2018-05-26T10:51:33.687Z,44.60
2018-05-26T10:54:01.143Z,44.60
2018-05-26T10:56:28.597Z,41.20
2018-05-26T10:58:56.052Z,44.70
2018-05-26T11:01:23.692Z,43.60
2018-05-26T11:03:51.140Z,44.80
2018-05-26T11:06:18.598Z,42.30
2018-05-26T11:08:46.054Z,43.80
2018-05-26T11:11:13.558Z,43.50
2018-05-26T11:13:40.996Z,43.40
2018-05-26T11:16:08.587Z,43.20
2018-05-26T11:18:35.954Z,42.90
2018-05-26T11:21:03.426Z,42.70
2018-05-26T11:23:30.955Z,41.80
2018-05-26T11:25:58.449Z,42.00
2018-05-26T11:28:25.929Z,44.00
2018-05-26T11:30:53.428Z,45.20
2018-05-26T11:33:20.876Z,44.80
2018-05-26T11:35:48.340Z,42.90
2018-05-26T11:38:15.794Z,45.90
2018-05-26T11:40:43.254Z,45.50
2018-05-26T11:43:10.715Z,46.10
2018-05-26T11:45:38.181Z,45.70
2018-05-26T11:48:05.641Z,45.00
2018-05-26T11:50:33.956Z,41.90
2018-05-26T11:53:01.421Z,42.00
2018-05-26T11:55:28.968Z,42.70
2018-05-26T11:57:56.426Z,43.00
2018-05-26T12:00:24.716Z,43.20
2018-05-26T12:02:52.936Z,45.10
2018-05-26T12:05:20.402Z,44.90
2018-05-26T12:07:47.858Z,43.30
2018-05-26T12:10:15.329Z,44.60
2018-05-26T12:12:42.794Z,47.30
2018-05-26T12:15:10.341Z,46.60
2018-05-26T12:17:37.784Z,45.30
2018-05-26T12:20:05.249Z,45.80
2018-05-26T12:22:32.709Z,43.50
2018-05-26T12:25:00.186Z,43.30
2018-05-26T12:27:27.680Z,45.50
2018-05-26T12:29:55.130Z,46.70
2018-05-26T12:32:22.614Z,46.30
2018-05-26T12:34:50.046Z,45.70
2018-05-26T12:37:17.508Z,44.10
2018-05-26T12:39:44.966Z,45.90
2018-05-26T12:42:12.438Z,46.00
2018-05-26T12:44:39.897Z,45.50
2018-05-26T12:47:07.356Z,45.90
2018-05-26T12:49:34.811Z,46.70
2018-05-26T12:52:03.049Z,49.40
2018-05-26T12:54:30.498Z,49.40
2018-05-26T12:56:57.967Z,46.20
2018-05-26T12:59:25.441Z,46.60
2018-05-26T13:01:52.897Z,49.30
2018-05-26T13:04:20.360Z,46.90
2018-05-26T13:06:47.826Z,46.80
2018-05-26T13:09:15.329Z,46.70
2018-05-26T13:11:42.793Z,44.60
2018-05-26T13:14:10.249Z,43.80
2018-05-26T13:16:37.837Z,44.30
2018-05-26T13:19:05.309Z,47.70
2018-05-26T13:21:32.778Z,45.60
2018-05-26T13:24:00.388Z,45.70
2018-05-26T13:26:28.628Z,43.70
2018-05-26T13:28:56.081Z,43.70
2018-05-26T13:31:23.955Z,41.60
2018-05-26T13:33:51.455Z,43.20
2018-05-26T13:36:18.941Z,44.90
2018-05-26T13:38:46.407Z,45.20
2018-05-26T13:41:13.876Z,45.90
2018-05-26T13:43:41.342Z,48.70
2018-05-26T13:46:08.894Z,49.00
2018-05-26T13:48:36.343Z,48.10
2018-05-26T13:51:03.810Z,51.20
2018-05-26T13:53:31.304Z,52.20
2018-05-26T13:55:59.604Z,54.00
2018-05-26T13:58:26.939Z,54.00
2018-05-26T14:00:54.406Z,50.60
2018-05-26T14:03:21.854Z,51.00
2018-05-26T14:05:50.118Z,50.10
2018-05-26T14:08:19.099Z,47.00
2018-05-26T14:10:46.577Z,46.90
2018-05-26T14:13:14.014Z,46.50
2018-05-26T14:15:41.474Z,48.10
2018-05-26T14:18:08.949Z,47.10
2018-05-26T14:20:36.393Z,49.50
2018-05-26T14:23:04.636Z,48.10
2018-05-26T14:25:32.188Z,48.10
2018-05-26T14:27:59.644Z,48.10
2018-05-26T14:30:27.138Z,46.90
2018-05-26T14:32:54.635Z,46.90
2018-05-26T14:35:22.085Z,47.30
2018-05-26T14:37:49.549Z,49.50
2018-05-26T14:40:16.998Z,48.20
2018-05-26T14:42:44.457Z,46.60
2018-05-26T14:45:11.931Z,47.40
2018-05-26T14:47:39.393Z,46.60
2018-05-26T14:50:06.890Z,49.00
2018-05-26T14:52:35.064Z,46.90
2018-05-26T14:55:02.508Z,46.80
2018-05-26T14:57:29.973Z,49.00
2018-05-26T14:59:58.189Z,49.30
2018-05-26T15:02:25.648Z,49.30
2018-05-26T15:04:53.137Z,48.70
2018-05-26T15:07:20.622Z,47.40
2018-05-26T15:09:48.038Z,48.60
2018-05-26T15:12:15.504Z,48.10
2018-05-26T15:14:43.137Z,47.30
2018-05-26T15:17:11.381Z,48.50
2018-05-26T15:19:38.856Z,48.50
2018-05-26T15:22:06.325Z,48.40
2018-05-26T15:24:33.778Z,49.70
2018-05-26T15:27:01.241Z,50.20
2018-05-26T15:29:28.764Z,50.10
2018-05-26T15:31:56.238Z,50.20
2018-05-26T15:34:23.745Z,50.60
2018-05-26T15:36:52.043Z,49.70
2018-05-26T15:39:19.498Z,49.60
2018-05-26T15:41:47.725Z,52.20
2018-05-26T15:44:15.174Z,52.10
2018-05-26T15:46:42.632Z,49.50
2018-05-26T15:49:10.094Z,51.10
2018-05-26T15:51:38.330Z,49.10
2018-05-26T15:54:05.781Z,49.20
2018-05-26T15:56:33.243Z,51.20
2018-05-26T15:59:00.719Z,48.00
2018-05-26T16:01:28.226Z,51.20
2018-05-26T16:03:55.739Z,52.80
2018-05-26T16:06:23.952Z,52.20
2018-05-26T16:08:51.402Z,52.10
2018-05-26T16:11:18.861Z,53.20
2018-05-26T16:13:46.494Z,53.00
2018-05-26T16:16:13.943Z,51.60
2018-05-26T16:18:41.429Z,52.20
2018-05-26T16:21:08.877Z,52.90
2018-05-26T16:23:36.489Z,52.20
2018-05-26T16:26:03.930Z,53.60
2018-05-26T16:28:31.390Z,53.70
2018-05-26T16:30:58.841Z,54.30
2018-05-26T16:33:26.305Z,54.30
2018-05-26T16:35:53.769Z,55.40
2018-05-26T16:38:21.234Z,55.30
2018-05-26T16:40:48.680Z,54.70
2018-05-26T16:43:16.900Z,54.50
2018-05-26T16:45:44.392Z,54.60
2018-05-26T16:48:11.871Z,54.90
2018-05-26T16:50:39.322Z,56.20
2018-05-26T16:53:07.067Z,55.50
2018-05-26T16:55:34.520Z,55.80
2018-05-26T16:58:02.760Z,55.70
2018-05-26T17:00:30.212Z,55.70
2018-05-26T17:02:57.681Z,57.00
2018-05-26T17:05:25.137Z,57.70
2018-05-26T17:07:52.637Z,58.10
2018-05-26T17:10:20.086Z,56.70
2018-05-26T17:12:47.544Z,58.10
2018-05-26T17:15:14.992Z,58.20
2018-05-26T17:17:43.221Z,57.90
2018-05-26T17:20:10.801Z,58.00
2018-05-26T17:22:38.274Z,58.30
2018-05-26T17:25:05.721Z,56.80
2018-05-26T17:27:33.190Z,58.20
2018-05-26T17:30:00.676Z,58.30
2018-05-26T17:32:28.186Z,57.80
2018-05-26T17:34:56.512Z,60.60
2018-05-26T17:37:24.050Z,60.50
2018-05-26T17:39:52.362Z,59.50
2018-05-26T17:42:20.582Z,59.10
2018-05-26T17:44:48.079Z,59.10
2018-05-26T17:47:15.540Z,60.60
2018-05-26T17:49:42.988Z,61.10
2018-05-26T17:52:10.522Z,61.30
2018-05-26T17:54:37.981Z,61.60
2018-05-26T17:57:06.225Z,63.70
2018-05-26T17:59:33.730Z,63.60
2018-05-26T18:02:01.966Z,63.20
2018-05-26T18:04:29.419Z,63.20
2018-05-26T18:06:56.917Z,63.50
2018-05-26T18:09:24.757Z,64.50
2018-05-26T18:11:52.965Z,64.80
2018-05-26T18:14:20.520Z,64.80
2018-05-26T18:16:47.968Z,64.40
2018-05-26T18:19:16.202Z,64.40
2018-05-26T18:21:43.738Z,64.40
2018-05-26T18:24:11.242Z,64.80
2018-05-26T18:26:38.688Z,65.60
2018-05-26T18:29:06.292Z,66.00
2018-05-26T18:31:33.863Z,66.30
2018-05-26T18:34:01.322Z,65.40
2018-05-26T18:36:28.869Z,66.10
2018-05-26T18:38:56.332Z,66.50
2018-05-26T18:41:23.889Z,66.60
2018-05-26T18:43:51.476Z,66.80
2018-05-26T18:46:18.958Z,67.10
2018-05-26T18:48:46.449Z,67.10
2018-05-26T18:51:14.037Z,67.10
2018-05-26T18:53:41.625Z,67.10
2018-05-26T18:56:09.145Z,67.10
2018-05-26T18:58:37.492Z,67.60
2018-05-26T19:01:05.712Z,67.70
2018-05-26T19:03:33.333Z,67.70
2018-05-26T19:06:00.773Z,67.70
2018-05-26T19:08:28.296Z,67.70
2018-05-26T19:10:56.553Z,66.90
2018-05-26T19:13:24.141Z,66.90
2018-05-26T19:15:52.427Z,66.20
2018-05-26T19:18:19.956Z,66.70
2018-05-26T19:20:47.436Z,66.50
2018-05-26T19:23:14.907Z,66.60
2018-05-26T19:25:42.356Z,66.40
2018-05-26T19:28:09.835Z,66.20
2018-05-26T19:30:37.276Z,66.40
2018-05-26T19:33:04.746Z,66.40
2018-05-26T19:35:32.196Z,66.60
2018-05-26T19:38:00.723Z,67.50
2018-05-26T19:40:28.168Z,67.50
2018-05-26T19:42:55.741Z,67.60
2018-05-26T19:45:23.202Z,68.40
2018-05-26T19:47:51.434Z,67.70
2018-05-26T19:50:18.922Z,67.70
2018-05-26T19:52:46.393Z,67.50
2018-05-26T19:55:13.866Z,67.50
2018-05-26T19:57:41.363Z,67.30
2018-05-26T20:00:09.591Z,67.00
2018-05-26T20:02:37.060Z,67.00
2018-05-26T20:05:04.522Z,67.30
2018-05-26T20:07:31.985Z,67.30
2018-05-26T20:09:59.477Z,67.60
2018-05-26T20:12:26.916Z,67.80
2018-05-26T20:14:54.461Z,68.20
2018-05-26T20:17:22.714Z,68.40
2018-05-26T20:19:50.201Z,68.40
2018-05-26T20:22:17.681Z,68.50
2018-05-26T20:24:45.121Z,68.30
2018-05-26T20:27:12.636Z,69.00
2018-05-26T20:29:40.869Z,68.80
2018-05-26T20:32:08.328Z,68.80
2018-05-26T20:34:35.794Z,68.90
2018-05-26T20:37:03.301Z,69.00
2018-05-26T20:39:30.752Z,68.80
2018-05-26T20:41:58.206Z,68.90
2018-05-26T20:44:25.881Z,68.80
2018-05-26T20:46:54.962Z,69.00
2018-05-26T20:49:22.434Z,68.90
2018-05-26T20:51:49.947Z,68.90
2018-05-26T20:54:17.614Z,68.60
2018-05-26T20:56:45.165Z,68.60
2018-05-26T20:59:12.620Z,68.70
2018-05-26T21:01:40.076Z,68.90
2018-05-26T21:04:07.549Z,69.10
2018-05-26T21:06:35.026Z,70.00
2018-05-26T21:09:02.489Z,69.40
2018-05-26T21:11:29.993Z,69.50
2018-05-26T21:13:57.453Z,68.80
2018-05-26T21:16:24.922Z,68.90
2018-05-26T21:18:52.381Z,68.90
2018-05-26T21:21:19.828Z,69.20
2018-05-26T21:23:47.292Z,68.60
2018-05-26T21:26:15.521Z,70.00
2018-05-26T21:28:43.001Z,70.00
2018-05-26T21:31:10.458Z,70.00
2018-05-26T21:33:37.920Z,70.00
2018-05-26T21:36:05.376Z,69.60
2018-05-26T21:38:32.835Z,69.60
2018-05-26T21:41:00.285Z,69.50
2018-05-26T21:43:28.525Z,69.20
2018-05-26T21:45:55.987Z,69.10
2018-05-26T21:48:23.458Z,69.40
2018-05-26T21:50:50.906Z,69.40
2018-05-26T21:53:19.329Z,69.70
2018-05-26T21:55:46.777Z,70.60
2018-05-26T21:58:14.241Z,70.00
2018-05-26T22:00:41.702Z,70.10
2018-05-26T22:03:09.157Z,70.10
2018-05-26T22:05:36.644Z,70.30
2018-05-26T22:08:04.106Z,70.20
2018-05-26T22:10:31.552Z,70.20
2018-05-26T22:12:59.782Z,70.30
2018-05-26T22:15:27.237Z,70.30
2018-05-26T22:17:54.693Z,70.20
2018-05-26T22:20:22.144Z,70.50
2018-05-26T22:22:50.382Z,70.30
2018-05-26T22:25:17.820Z,70.30
2018-05-26T22:27:45.281Z,70.20
2018-05-26T22:30:12.744Z,70.20
2018-05-26T22:32:41.047Z,70.30
2018-05-26T22:35:09.323Z,70.30
2018-05-26T22:37:37.531Z,70.40
2018-05-26T22:40:04.996Z,70.40
2018-05-26T22:42:32.451Z,70.50
2018-05-26T22:45:00.676Z,70.70
2018-05-26T22:47:28.223Z,70.70
2018-05-26T22:49:55.680Z,70.60
2018-05-26T22:52:23.157Z,70.50
2018-05-26T22:54:50.623Z,70.60
2018-05-26T22:57:18.064Z,70.20
2018-05-26T22:59:46.304Z,69.70
2018-05-26T23:02:13.754Z,69.60
2018-05-26T23:04:41.217Z,70.50
2018-05-26T23:07:08.688Z,70.50
2018-05-26T23:09:36.146Z,70.10
2018-05-26T23:12:03.596Z,70.30
2018-05-26T23:14:31.864Z,69.90
2018-05-26T23:16:59.309Z,70.30
2018-05-26T23:19:26.785Z,70.90
2018-05-26T23:21:54.219Z,70.40
2018-05-26T23:24:21.681Z,70.90
2018-05-26T23:26:49.128Z,71.10
2018-05-26T23:29:17.352Z,71.40
2018-05-26T23:31:44.808Z,71.30
2018-05-26T23:34:12.297Z,71.90
2018-05-26T23:36:39.788Z,72.20
2018-05-26T23:39:07.257Z,71.80
2018-05-26T23:41:34.700Z,72.00
2018-05-26T23:44:02.174Z,72.10
2018-05-26T23:46:29.643Z,72.60
2018-05-26T23:48:57.092Z,71.80
2018-05-26T23:51:24.546Z,71.70
2018-05-26T23:53:52.782Z,71.90
2018-05-26T23:56:20.232Z,71.90
2018-05-26T23:58:47.706Z,71.90
